sensor_id;sensor_type;location;lat;lon;timestamp;P1;durP1;ratioP1;P2;durP2;ratioP2
16699;SDS011;8466;52.286;21.124;2023-03-01T00:01:48;124.40;;;69.63;;
16699;SDS011;8466;52.286;21.124;2023-03-01T00:04:17;126.07;;;70.87;;
16699;SDS011;8466;52.286;21.124;2023-03-01T00:06:46;126.23;;;70.60;;
16699;SDS011;8466;52.286;21.124;2023-03-01T00:09:15;115.70;;;64.33;;
16699;SDS011;8466;52.286;21.124;2023-03-01T00:11:44;111.27;;;62.60;;
16699;SDS011;8466;52.286;21.124;2023-03-01T00:14:15;124.93;;;65.47;;
16699;SDS011;8466;52.286;21.124;2023-03-01T00:16:44;125.17;;;66.10;;
16699;SDS011;8466;52.286;21.124;2023-03-01T00:19:14;123.23;;;67.27;;
16699;SDS011;8466;52.286;21.124;2023-03-01T00:21:44;135.57;;;71.77;;
16699;SDS011;8466;52.286;21.124;2023-03-01T00:24:13;130.90;;;71.97;;
16699;SDS011;8466;52.286;21.124;2023-03-01T00:26:43;118.67;;;66.47;;
16699;SDS011;8466;52.286;21.124;2023-03-01T00:29:13;107.03;;;59.87;;
16699;SDS011;8466;52.286;21.124;2023-03-01T00:31:43;97.57;;;57.40;;
16699;SDS011;8466;52.286;21.124;2023-03-01T00:34:11;89.27;;;51.97;;
16699;SDS011;8466;52.286;21.124;2023-03-01T00:36:40;91.93;;;52.83;;
16699;SDS011;8466;52.286;21.124;2023-03-01T00:39:10;85.13;;;52.57;;
16699;SDS011;8466;52.286;21.124;2023-03-01T00:41:41;82.57;;;50.83;;
16699;SDS011;8466;52.286;21.124;2023-03-01T00:44:11;84.00;;;50.97;;
16699;SDS011;8466;52.286;21.124;2023-03-01T00:46:41;77.70;;;48.33;;
16699;SDS011;8466;52.286;21.124;2023-03-01T00:49:09;87.00;;;49.00;;
16699;SDS011;8466;52.286;21.124;2023-03-01T00:51:39;76.05;;;53.75;;
16699;SDS011;8466;52.286;21.124;2023-03-01T00:54:08;92.00;;;71.53;;
16699;SDS011;8466;52.286;21.124;2023-03-01T00:56:37;102.90;;;62.17;;
16699;SDS011;8466;52.286;21.124;2023-03-01T00:59:05;101.63;;;60.67;;
16699;SDS011;8466;52.286;21.124;2023-03-01T01:01:34;94.63;;;55.37;;
16699;SDS011;8466;52.286;21.124;2023-03-01T01:04:05;87.83;;;51.97;;
16699;SDS011;8466;52.286;21.124;2023-03-01T01:06:36;77.70;;;44.80;;
16699;SDS011;8466;52.286;21.124;2023-03-01T01:09:06;71.67;;;46.17;;
16699;SDS011;8466;52.286;21.124;2023-03-01T01:11:36;66.60;;;42.03;;
16699;SDS011;8466;52.286;21.124;2023-03-01T01:14:04;64.70;;;41.07;;
16699;SDS011;8466;52.286;21.124;2023-03-01T01:16:33;68.37;;;39.17;;
16699;SDS011;8466;52.286;21.124;2023-03-01T01:19:02;65.43;;;39.03;;
16699;SDS011;8466;52.286;21.124;2023-03-01T01:21:32;63.50;;;39.27;;
16699;SDS011;8466;52.286;21.124;2023-03-01T01:24:02;67.13;;;40.73;;
16699;SDS011;8466;52.286;21.124;2023-03-01T01:26:32;69.37;;;40.70;;
16699;SDS011;8466;52.286;21.124;2023-03-01T01:29:02;66.53;;;40.87;;
16699;SDS011;8466;52.286;21.124;2023-03-01T01:31:32;62.97;;;40.30;;
16699;SDS011;8466;52.286;21.124;2023-03-01T01:34:02;64.87;;;39.63;;
16699;SDS011;8466;52.286;21.124;2023-03-01T01:36:33;68.63;;;39.67;;
16699;SDS011;8466;52.286;21.124;2023-03-01T01:39:02;67.63;;;40.63;;
16699;SDS011;8466;52.286;21.124;2023-03-01T01:41:31;64.93;;;39.77;;
16699;SDS011;8466;52.286;21.124;2023-03-01T01:44:13;64.57;;;41.20;;
16699;SDS011;8466;52.286;21.124;2023-03-01T01:46:44;64.30;;;40.80;;
16699;SDS011;8466;52.286;21.124;2023-03-01T01:49:24;66.73;;;40.73;;
16699;SDS011;8466;52.286;21.124;2023-03-01T01:51:58;64.33;;;40.33;;
16699;SDS011;8466;52.286;21.124;2023-03-01T01:54:35;70.47;;;42.53;;
16699;SDS011;8466;52.286;21.124;2023-03-01T01:57:09;65.77;;;41.20;;
16699;SDS011;8466;52.286;21.124;2023-03-01T01:59:41;70.67;;;42.97;;
16699;SDS011;8466;52.286;21.124;2023-03-01T02:02:13;68.40;;;42.50;;
16699;SDS011;8466;52.286;21.124;2023-03-01T02:04:44;65.70;;;39.90;;
16699;SDS011;8466;52.286;21.124;2023-03-01T02:07:14;71.17;;;44.63;;
16699;SDS011;8466;52.286;21.124;2023-03-01T02:09:46;70.20;;;44.77;;
16699;SDS011;8466;52.286;21.124;2023-03-01T02:12:16;73.13;;;45.83;;
16699;SDS011;8466;52.286;21.124;2023-03-01T02:14:47;75.90;;;45.80;;
16699;SDS011;8466;52.286;21.124;2023-03-01T02:17:16;86.40;;;49.70;;
16699;SDS011;8466;52.286;21.124;2023-03-01T02:19:51;79.70;;;49.50;;
16699;SDS011;8466;52.286;21.124;2023-03-01T02:22:27;127.10;;;61.87;;
16699;SDS011;8466;52.286;21.124;2023-03-01T02:25:02;122.50;;;60.73;;
16699;SDS011;8466;52.286;21.124;2023-03-01T02:27:42;116.53;;;57.37;;
16699;SDS011;8466;52.286;21.124;2023-03-01T02:30:22;116.17;;;57.67;;
16699;SDS011;8466;52.286;21.124;2023-03-01T02:32:52;114.97;;;57.97;;
16699;SDS011;8466;52.286;21.124;2023-03-01T02:35:30;109.17;;;53.47;;
16699;SDS011;8466;52.286;21.124;2023-03-01T02:38:01;111.93;;;53.70;;
16699;SDS011;8466;52.286;21.124;2023-03-01T02:40:31;117.03;;;55.13;;
16699;SDS011;8466;52.286;21.124;2023-03-01T02:43:02;100.57;;;52.83;;
16699;SDS011;8466;52.286;21.124;2023-03-01T02:45:36;86.87;;;48.93;;
16699;SDS011;8466;52.286;21.124;2023-03-01T02:48:04;81.87;;;51.50;;
16699;SDS011;8466;52.286;21.124;2023-03-01T02:50:43;86.72;;;57.13;;
16699;SDS011;8466;52.286;21.124;2023-03-01T02:53:21;85.50;;;52.63;;
16699;SDS011;8466;52.286;21.124;2023-03-01T02:55:56;81.37;;;51.77;;
16699;SDS011;8466;52.286;21.124;2023-03-01T02:58:25;83.97;;;48.50;;
16699;SDS011;8466;52.286;21.124;2023-03-01T03:00:55;73.03;;;47.67;;
16699;SDS011;8466;52.286;21.124;2023-03-01T03:03:27;69.07;;;42.80;;
16699;SDS011;8466;52.286;21.124;2023-03-01T03:05:56;67.80;;;42.27;;
16699;SDS011;8466;52.286;21.124;2023-03-01T03:08:25;68.37;;;41.07;;
16699;SDS011;8466;52.286;21.124;2023-03-01T03:10:53;64.87;;;40.57;;
16699;SDS011;8466;52.286;21.124;2023-03-01T03:13:22;64.37;;;39.97;;
16699;SDS011;8466;52.286;21.124;2023-03-01T03:15:56;62.87;;;39.57;;
16699;SDS011;8466;52.286;21.124;2023-03-01T03:18:25;64.40;;;41.00;;
16699;SDS011;8466;52.286;21.124;2023-03-01T03:20:54;62.20;;;39.67;;
16699;SDS011;8466;52.286;21.124;2023-03-01T03:23:22;58.60;;;38.23;;
16699;SDS011;8466;52.286;21.124;2023-03-01T03:25:51;56.90;;;37.10;;
16699;SDS011;8466;52.286;21.124;2023-03-01T03:28:20;58.70;;;37.93;;
16699;SDS011;8466;52.286;21.124;2023-03-01T03:30:48;52.57;;;37.17;;
16699;SDS011;8466;52.286;21.124;2023-03-01T03:33:19;56.50;;;37.63;;
16699;SDS011;8466;52.286;21.124;2023-03-01T03:35:48;51.70;;;37.43;;
16699;SDS011;8466;52.286;21.124;2023-03-01T03:38:18;57.90;;;38.13;;
16699;SDS011;8466;52.286;21.124;2023-03-01T03:40:49;59.30;;;37.50;;
16699;SDS011;8466;52.286;21.124;2023-03-01T03:43:19;54.97;;;36.90;;
16699;SDS011;8466;52.286;21.124;2023-03-01T03:45:49;56.47;;;38.80;;
16699;SDS011;8466;52.286;21.124;2023-03-01T03:48:21;54.37;;;38.33;;
16699;SDS011;8466;52.286;21.124;2023-03-01T03:50:52;58.43;;;38.23;;
16699;SDS011;8466;52.286;21.124;2023-03-01T03:53:23;58.87;;;40.13;;
16699;SDS011;8466;52.286;21.124;2023-03-01T03:55:53;63.67;;;42.47;;
16699;SDS011;8466;52.286;21.124;2023-03-01T03:58:23;60.33;;;39.43;;
16699;SDS011;8466;52.286;21.124;2023-03-01T04:00:53;64.20;;;42.93;;
16699;SDS011;8466;52.286;21.124;2023-03-01T04:03:25;64.30;;;39.63;;
16699;SDS011;8466;52.286;21.124;2023-03-01T04:05:56;66.03;;;41.53;;
16699;SDS011;8466;52.286;21.124;2023-03-01T04:08:25;58.80;;;41.57;;
16699;SDS011;8466;52.286;21.124;2023-03-01T04:10:57;67.23;;;42.17;;
16699;SDS011;8466;52.286;21.124;2023-03-01T04:13:47;61.40;;;39.30;;
16699;SDS011;8466;52.286;21.124;2023-03-01T04:16:16;60.83;;;41.43;;
16699;SDS011;8466;52.286;21.124;2023-03-01T04:18:46;55.03;;;40.47;;
16699;SDS011;8466;52.286;21.124;2023-03-01T04:21:15;62.07;;;39.63;;
16699;SDS011;8466;52.286;21.124;2023-03-01T04:23:44;58.70;;;38.60;;
16699;SDS011;8466;52.286;21.124;2023-03-01T04:26:12;67.13;;;42.60;;
16699;SDS011;8466;52.286;21.124;2023-03-01T04:28:41;61.13;;;42.20;;
16699;SDS011;8466;52.286;21.124;2023-03-01T04:31:13;65.23;;;41.87;;
16699;SDS011;8466;52.286;21.124;2023-03-01T04:33:45;66.77;;;42.17;;
16699;SDS011;8466;52.286;21.124;2023-03-01T04:36:18;61.87;;;41.00;;
16699;SDS011;8466;52.286;21.124;2023-03-01T04:38:49;56.30;;;39.07;;
16699;SDS011;8466;52.286;21.124;2023-03-01T04:41:18;64.97;;;40.40;;
16699;SDS011;8466;52.286;21.124;2023-03-01T04:43:48;59.70;;;39.97;;
16699;SDS011;8466;52.286;21.124;2023-03-01T04:46:18;59.63;;;39.63;;
16699;SDS011;8466;52.286;21.124;2023-03-01T04:48:48;57.10;;;40.33;;
16699;SDS011;8466;52.286;21.124;2023-03-01T04:51:17;55.40;;;39.80;;
16699;SDS011;8466;52.286;21.124;2023-03-01T04:53:46;59.43;;;39.20;;
16699;SDS011;8466;52.286;21.124;2023-03-01T04:56:15;56.33;;;38.27;;
16699;SDS011;8466;52.286;21.124;2023-03-01T04:58:45;55.50;;;37.43;;
16699;SDS011;8466;52.286;21.124;2023-03-01T05:01:14;52.53;;;41.95;;
16699;SDS011;8466;52.286;21.124;2023-03-01T05:03:45;58.20;;;47.53;;
16699;SDS011;8466;52.286;21.124;2023-03-01T05:06:17;55.40;;;43.67;;
16699;SDS011;8466;52.286;21.124;2023-03-01T05:08:46;59.80;;;42.63;;
16699;SDS011;8466;52.286;21.124;2023-03-01T05:11:15;57.07;;;41.00;;
16699;SDS011;8466;52.286;21.124;2023-03-01T05:13:44;60.70;;;42.33;;
16699;SDS011;8466;52.286;21.124;2023-03-01T05:16:12;66.73;;;43.73;;
16699;SDS011;8466;52.286;21.124;2023-03-01T05:18:41;56.67;;;40.50;;
16699;SDS011;8466;52.286;21.124;2023-03-01T05:21:11;58.30;;;41.60;;
16699;SDS011;8466;52.286;21.124;2023-03-01T05:23:44;59.50;;;48.20;;
16699;SDS011;8466;52.286;21.124;2023-03-01T05:26:13;66.23;;;50.80;;
16699;SDS011;8466;52.286;21.124;2023-03-01T05:28:59;66.97;;;47.60;;
16699;SDS011;8466;52.286;21.124;2023-03-01T05:31:30;64.40;;;46.83;;
16699;SDS011;8466;52.286;21.124;2023-03-01T05:33:59;68.70;;;49.33;;
16699;SDS011;8466;52.286;21.124;2023-03-01T05:36:28;62.28;;;46.15;;
16699;SDS011;8466;52.286;21.124;2023-03-01T05:38:59;72.80;;;54.53;;
16699;SDS011;8466;52.286;21.124;2023-03-01T05:41:28;77.03;;;54.70;;
16699;SDS011;8466;52.286;21.124;2023-03-01T05:43:56;77.43;;;51.07;;
16699;SDS011;8466;52.286;21.124;2023-03-01T05:46:25;77.83;;;50.33;;
16699;SDS011;8466;52.286;21.124;2023-03-01T05:48:55;76.23;;;50.97;;
16699;SDS011;8466;52.286;21.124;2023-03-01T05:51:24;75.73;;;50.70;;
16699;SDS011;8466;52.286;21.124;2023-03-01T05:53:52;73.00;;;51.93;;
16699;SDS011;8466;52.286;21.124;2023-03-01T05:56:23;75.97;;;51.97;;
16699;SDS011;8466;52.286;21.124;2023-03-01T05:58:51;77.80;;;51.77;;
16699;SDS011;8466;52.286;21.124;2023-03-01T06:01:20;63.88;;;49.60;;
16699;SDS011;8466;52.286;21.124;2023-03-01T06:03:48;72.53;;;53.40;;
16699;SDS011;8466;52.286;21.124;2023-03-01T06:06:17;71.30;;;48.73;;
16699;SDS011;8466;52.286;21.124;2023-03-01T06:08:45;73.50;;;50.47;;
16699;SDS011;8466;52.286;21.124;2023-03-01T06:11:14;67.27;;;47.67;;
16699;SDS011;8466;52.286;21.124;2023-03-01T06:13:44;70.77;;;46.30;;
16699;SDS011;8466;52.286;21.124;2023-03-01T06:16:14;65.90;;;46.50;;
16699;SDS011;8466;52.286;21.124;2023-03-01T06:18:42;65.50;;;44.40;;
16699;SDS011;8466;52.286;21.124;2023-03-01T06:21:11;63.70;;;45.77;;
16699;SDS011;8466;52.286;21.124;2023-03-01T06:23:40;75.83;;;49.00;;
16699;SDS011;8466;52.286;21.124;2023-03-01T06:26:09;75.67;;;49.80;;
16699;SDS011;8466;52.286;21.124;2023-03-01T06:28:38;70.37;;;49.50;;
16699;SDS011;8466;52.286;21.124;2023-03-01T06:31:08;67.17;;;47.13;;
16699;SDS011;8466;52.286;21.124;2023-03-01T06:33:37;70.83;;;48.47;;
16699;SDS011;8466;52.286;21.124;2023-03-01T06:36:06;67.40;;;46.57;;
16699;SDS011;8466;52.286;21.124;2023-03-01T06:38:36;65.23;;;45.20;;
16699;SDS011;8466;52.286;21.124;2023-03-01T06:41:07;71.57;;;45.13;;
16699;SDS011;8466;52.286;21.124;2023-03-01T06:43:35;61.17;;;42.13;;
16699;SDS011;8466;52.286;21.124;2023-03-01T06:46:04;61.33;;;43.73;;
16699;SDS011;8466;52.286;21.124;2023-03-01T06:48:35;65.40;;;44.00;;
16699;SDS011;8466;52.286;21.124;2023-03-01T06:51:04;74.83;;;46.13;;
16699;SDS011;8466;52.286;21.124;2023-03-01T06:53:32;63.03;;;43.60;;
16699;SDS011;8466;52.286;21.124;2023-03-01T06:56:01;63.43;;;43.87;;
16699;SDS011;8466;52.286;21.124;2023-03-01T06:58:30;64.10;;;44.93;;
16699;SDS011;8466;52.286;21.124;2023-03-01T07:00:59;59.40;;;41.70;;
16699;SDS011;8466;52.286;21.124;2023-03-01T07:03:31;61.33;;;42.73;;
16699;SDS011;8466;52.286;21.124;2023-03-01T07:06:02;58.83;;;40.97;;
16699;SDS011;8466;52.286;21.124;2023-03-01T07:08:31;57.33;;;43.17;;
16699;SDS011;8466;52.286;21.124;2023-03-01T07:10:59;57.70;;;43.00;;
16699;SDS011;8466;52.286;21.124;2023-03-01T07:13:28;67.57;;;46.93;;
16699;SDS011;8466;52.286;21.124;2023-03-01T07:15:57;69.53;;;47.73;;
16699;SDS011;8466;52.286;21.124;2023-03-01T07:18:26;63.40;;;46.67;;
16699;SDS011;8466;52.286;21.124;2023-03-01T07:20:54;64.03;;;48.43;;
16699;SDS011;8466;52.286;21.124;2023-03-01T07:23:24;65.63;;;47.87;;
16699;SDS011;8466;52.286;21.124;2023-03-01T07:25:53;78.77;;;56.50;;
16699;SDS011;8466;52.286;21.124;2023-03-01T07:28:22;86.30;;;64.23;;
16699;SDS011;8466;52.286;21.124;2023-03-01T07:30:51;62.90;;;50.00;;
16699;SDS011;8466;52.286;21.124;2023-03-01T07:33:21;69.93;;;60.90;;
16699;SDS011;8466;52.286;21.124;2023-03-01T07:35:55;76.00;;;63.73;;
16699;SDS011;8466;52.286;21.124;2023-03-01T07:38:26;61.63;;;48.90;;
16699;SDS011;8466;52.286;21.124;2023-03-01T07:40:57;61.43;;;51.97;;
16699;SDS011;8466;52.286;21.124;2023-03-01T07:43:26;54.53;;;46.50;;
16699;SDS011;8466;52.286;21.124;2023-03-01T07:45:57;60.23;;;47.90;;
16699;SDS011;8466;52.286;21.124;2023-03-01T07:48:27;55.50;;;45.50;;
16699;SDS011;8466;52.286;21.124;2023-03-01T07:50:57;49.50;;;44.00;;
16699;SDS011;8466;52.286;21.124;2023-03-01T07:53:27;46.03;;;40.27;;
16699;SDS011;8466;52.286;21.124;2023-03-01T07:56:00;47.03;;;41.73;;
16699;SDS011;8466;52.286;21.124;2023-03-01T07:58:29;56.17;;;51.10;;
16699;SDS011;8466;52.286;21.124;2023-03-01T08:01:00;52.03;;;47.33;;
16699;SDS011;8466;52.286;21.124;2023-03-01T08:03:29;48.37;;;43.43;;
16699;SDS011;8466;52.286;21.124;2023-03-01T08:05:59;51.23;;;46.10;;
16699;SDS011;8466;52.286;21.124;2023-03-01T08:08:29;69.73;;;63.57;;
16699;SDS011;8466;52.286;21.124;2023-03-01T08:10:59;68.33;;;62.17;;
16699;SDS011;8466;52.286;21.124;2023-03-01T08:13:28;65.07;;;59.17;;
16699;SDS011;8466;52.286;21.124;2023-03-01T08:16:00;73.80;;;67.17;;
16699;SDS011;8466;52.286;21.124;2023-03-01T08:18:29;71.20;;;65.43;;
16699;SDS011;8466;52.286;21.124;2023-03-01T08:21:01;86.60;;;79.27;;
16699;SDS011;8466;52.286;21.124;2023-03-01T08:23:34;90.90;;;83.53;;
16699;SDS011;8466;52.286;21.124;2023-03-01T08:26:04;90.47;;;83.00;;
16699;SDS011;8466;52.286;21.124;2023-03-01T08:28:34;84.47;;;77.97;;
16699;SDS011;8466;52.286;21.124;2023-03-01T08:31:02;107.17;;;99.10;;
16699;SDS011;8466;52.286;21.124;2023-03-01T08:33:40;90.63;;;83.20;;
16699;SDS011;8466;52.286;21.124;2023-03-01T08:36:09;90.00;;;83.07;;
16699;SDS011;8466;52.286;21.124;2023-03-01T08:38:39;100.93;;;92.87;;
16699;SDS011;8466;52.286;21.124;2023-03-01T08:41:08;99.17;;;91.83;;
16699;SDS011;8466;52.286;21.124;2023-03-01T08:43:36;86.70;;;79.53;;
16699;SDS011;8466;52.286;21.124;2023-03-01T08:46:05;84.53;;;77.73;;
16699;SDS011;8466;52.286;21.124;2023-03-01T08:48:34;116.13;;;107.53;;
16699;SDS011;8466;52.286;21.124;2023-03-01T08:51:08;90.70;;;83.40;;
16699;SDS011;8466;52.286;21.124;2023-03-01T08:53:40;102.50;;;95.13;;
16699;SDS011;8466;52.286;21.124;2023-03-01T08:56:09;88.57;;;81.20;;
16699;SDS011;8466;52.286;21.124;2023-03-01T08:58:38;99.83;;;92.10;;
16699;SDS011;8466;52.286;21.124;2023-03-01T09:01:07;104.10;;;95.80;;
16699;SDS011;8466;52.286;21.124;2023-03-01T09:03:36;103.90;;;95.80;;
16699;SDS011;8466;52.286;21.124;2023-03-01T09:06:05;110.13;;;101.77;;
16699;SDS011;8466;52.286;21.124;2023-03-01T09:08:35;91.83;;;84.80;;
16699;SDS011;8466;52.286;21.124;2023-03-01T09:11:07;108.10;;;100.37;;
16699;SDS011;8466;52.286;21.124;2023-03-01T09:13:38;104.23;;;96.40;;
16699;SDS011;8466;52.286;21.124;2023-03-01T09:16:10;112.67;;;104.03;;
16699;SDS011;8466;52.286;21.124;2023-03-01T09:18:40;97.57;;;90.37;;
16699;SDS011;8466;52.286;21.124;2023-03-01T09:21:09;104.37;;;96.50;;
16699;SDS011;8466;52.286;21.124;2023-03-01T09:23:40;113.27;;;104.90;;
16699;SDS011;8466;52.286;21.124;2023-03-01T09:26:14;92.70;;;85.70;;
16699;SDS011;8466;52.286;21.124;2023-03-01T09:28:45;112.07;;;103.20;;
16699;SDS011;8466;52.286;21.124;2023-03-01T09:31:15;92.97;;;86.13;;
16699;SDS011;8466;52.286;21.124;2023-03-01T09:33:47;118.30;;;109.87;;
16699;SDS011;8466;52.286;21.124;2023-03-01T09:36:17;99.53;;;92.40;;
16699;SDS011;8466;52.286;21.124;2023-03-01T09:38:48;100.70;;;93.37;;
16699;SDS011;8466;52.286;21.124;2023-03-01T09:41:29;112.83;;;105.00;;
16699;SDS011;8466;52.286;21.124;2023-03-01T09:44:16;92.13;;;84.90;;
16699;SDS011;8466;52.286;21.124;2023-03-01T09:46:53;96.73;;;89.60;;
16699;SDS011;8466;52.286;21.124;2023-03-01T09:49:24;92.83;;;85.90;;
16699;SDS011;8466;52.286;21.124;2023-03-01T09:52:00;79.67;;;73.33;;
16699;SDS011;8466;52.286;21.124;2023-03-01T09:54:34;88.33;;;81.73;;
16699;SDS011;8466;52.286;21.124;2023-03-01T09:57:16;101.43;;;94.10;;
16699;SDS011;8466;52.286;21.124;2023-03-01T09:59:52;85.83;;;78.93;;
16699;SDS011;8466;52.286;21.124;2023-03-01T10:02:41;83.67;;;77.23;;
16699;SDS011;8466;52.286;21.124;2023-03-01T10:05:37;95.23;;;88.03;;
16699;SDS011;8466;52.286;21.124;2023-03-01T10:08:19;103.20;;;95.83;;
16699;SDS011;8466;52.286;21.124;2023-03-01T10:11:03;89.37;;;82.47;;
16699;SDS011;8466;52.286;21.124;2023-03-01T10:13:50;84.53;;;77.93;;
16699;SDS011;8466;52.286;21.124;2023-03-01T10:16:26;99.93;;;92.90;;
16699;SDS011;8466;52.286;21.124;2023-03-01T10:19:05;77.73;;;71.03;;
16699;SDS011;8466;52.286;21.124;2023-03-01T10:21:43;76.13;;;70.17;;
16699;SDS011;8466;52.286;21.124;2023-03-01T10:24:14;82.40;;;76.10;;
16699;SDS011;8466;52.286;21.124;2023-03-01T10:26:49;57.00;;;52.20;;
16699;SDS011;8466;52.286;21.124;2023-03-01T10:29:25;49.40;;;44.80;;
16699;SDS011;8466;52.286;21.124;2023-03-01T10:31:57;37.27;;;33.83;;
16699;SDS011;8466;52.286;21.124;2023-03-01T10:34:27;34.03;;;30.90;;
16699;SDS011;8466;52.286;21.124;2023-03-01T10:36:58;36.53;;;32.80;;
16699;SDS011;8466;52.286;21.124;2023-03-01T10:39:36;32.97;;;29.57;;
16699;SDS011;8466;52.286;21.124;2023-03-01T10:42:05;30.93;;;27.90;;
16699;SDS011;8466;52.286;21.124;2023-03-01T10:44:50;29.53;;;26.30;;
16699;SDS011;8466;52.286;21.124;2023-03-01T10:47:20;26.53;;;21.80;;
16699;SDS011;8466;52.286;21.124;2023-03-01T10:49:52;27.87;;;25.30;;
16699;SDS011;8466;52.286;21.124;2023-03-01T10:52:23;23.93;;;21.43;;
16699;SDS011;8466;52.286;21.124;2023-03-01T10:54:54;23.97;;;20.70;;
16699;SDS011;8466;52.286;21.124;2023-03-01T10:57:28;31.17;;;28.07;;
16699;SDS011;8466;52.286;21.124;2023-03-01T11:00:22;28.20;;;24.23;;
16699;SDS011;8466;52.286;21.124;2023-03-01T11:03:03;30.07;;;27.17;;
16699;SDS011;8466;52.286;21.124;2023-03-01T11:05:53;23.47;;;20.67;;
16699;SDS011;8466;52.286;21.124;2023-03-01T11:08:31;33.87;;;30.20;;
16699;SDS011;8466;52.286;21.124;2023-03-01T11:13:58;25.63;;;22.97;;
16699;SDS011;8466;52.286;21.124;2023-03-01T11:16:59;29.13;;;26.77;;
16699;SDS011;8466;52.286;21.124;2023-03-01T11:19:29;24.40;;;21.07;;
16699;SDS011;8466;52.286;21.124;2023-03-01T11:22:00;24.43;;;21.93;;
16699;SDS011;8466;52.286;21.124;2023-03-01T11:24:37;25.37;;;20.43;;
16699;SDS011;8466;52.286;21.124;2023-03-01T11:27:18;27.03;;;23.83;;
16699;SDS011;8466;52.286;21.124;2023-03-01T11:29:58;27.87;;;24.67;;
16699;SDS011;8466;52.286;21.124;2023-03-01T11:32:34;24.27;;;21.97;;
16699;SDS011;8466;52.286;21.124;2023-03-01T11:35:09;21.33;;;19.23;;
16699;SDS011;8466;52.286;21.124;2023-03-01T11:37:55;24.75;;;22.27;;
16699;SDS011;8466;52.286;21.124;2023-03-01T11:40:32;23.60;;;21.20;;
16699;SDS011;8466;52.286;21.124;2023-03-01T11:43:05;22.47;;;20.33;;
16699;SDS011;8466;52.286;21.124;2023-03-01T11:45:42;24.40;;;21.93;;
16699;SDS011;8466;52.286;21.124;2023-03-01T11:48:28;25.00;;;22.30;;
16699;SDS011;8466;52.286;21.124;2023-03-01T11:51:17;26.40;;;23.53;;
16699;SDS011;8466;52.286;21.124;2023-03-01T11:53:56;83.33;;;52.00;;
16699;SDS011;8466;52.286;21.124;2023-03-01T11:56:34;26.20;;;23.57;;
16699;SDS011;8466;52.286;21.124;2023-03-01T12:02:14;31.27;;;24.90;;
16699;SDS011;8466;52.286;21.124;2023-03-01T12:05:05;24.33;;;21.93;;
16699;SDS011;8466;52.286;21.124;2023-03-01T12:07:52;21.87;;;19.60;;
16699;SDS011;8466;52.286;21.124;2023-03-01T12:10:25;26.07;;;22.17;;
16699;SDS011;8466;52.286;21.124;2023-03-01T12:13:01;21.63;;;19.43;;
16699;SDS011;8466;52.286;21.124;2023-03-01T12:15:48;23.30;;;20.90;;
16699;SDS011;8466;52.286;21.124;2023-03-01T12:18:35;28.13;;;25.13;;
16699;SDS011;8466;52.286;21.124;2023-03-01T12:21:30;23.63;;;21.23;;
16699;SDS011;8466;52.286;21.124;2023-03-01T12:24:20;19.70;;;17.80;;
16699;SDS011;8466;52.286;21.124;2023-03-01T12:27:26;25.87;;;23.47;;
16699;SDS011;8466;52.286;21.124;2023-03-01T12:30:19;33.27;;;29.63;;
16699;SDS011;8466;52.286;21.124;2023-03-01T12:33:01;33.77;;;28.93;;
16699;SDS011;8466;52.286;21.124;2023-03-01T12:35:42;28.43;;;24.30;;
16699;SDS011;8466;52.286;21.124;2023-03-01T12:38:33;25.33;;;22.90;;
16699;SDS011;8466;52.286;21.124;2023-03-01T12:44:05;23.57;;;21.03;;
16699;SDS011;8466;52.286;21.124;2023-03-01T12:46:53;25.83;;;23.07;;
16699;SDS011;8466;52.286;21.124;2023-03-01T12:49:35;24.67;;;22.23;;
16699;SDS011;8466;52.286;21.124;2023-03-01T12:52:10;23.53;;;21.27;;
16699;SDS011;8466;52.286;21.124;2023-03-01T12:54:44;24.73;;;22.33;;
16699;SDS011;8466;52.286;21.124;2023-03-01T12:57:15;26.93;;;24.33;;
16699;SDS011;8466;52.286;21.124;2023-03-01T12:59:51;22.60;;;20.13;;
16699;SDS011;8466;52.286;21.124;2023-03-01T13:02:37;22.17;;;19.43;;
16699;SDS011;8466;52.286;21.124;2023-03-01T13:05:19;23.53;;;21.30;;
16699;SDS011;8466;52.286;21.124;2023-03-01T13:07:55;24.90;;;22.43;;
16699;SDS011;8466;52.286;21.124;2023-03-01T13:10:34;22.13;;;19.90;;
16699;SDS011;8466;52.286;21.124;2023-03-01T13:13:13;24.33;;;21.77;;
16699;SDS011;8466;52.286;21.124;2023-03-01T13:15:47;22.40;;;20.17;;
16699;SDS011;8466;52.286;21.124;2023-03-01T13:18:30;29.20;;;26.23;;
16699;SDS011;8466;52.286;21.124;2023-03-01T13:21:03;21.77;;;19.47;;
16699;SDS011;8466;52.286;21.124;2023-03-01T13:23:33;22.03;;;19.87;;
16699;SDS011;8466;52.286;21.124;2023-03-01T13:26:07;25.63;;;23.03;;
16699;SDS011;8466;52.286;21.124;2023-03-01T13:28:46;22.03;;;19.67;;
16699;SDS011;8466;52.286;21.124;2023-03-01T13:37:31;24.87;;;22.60;;
16699;SDS011;8466;52.286;21.124;2023-03-01T13:40:03;26.20;;;22.93;;
16699;SDS011;8466;52.286;21.124;2023-03-01T13:42:52;24.80;;;22.47;;
16699;SDS011;8466;52.286;21.124;2023-03-01T13:45:36;25.83;;;23.10;;
16699;SDS011;8466;52.286;21.124;2023-03-01T13:48:11;27.03;;;24.30;;
16699;SDS011;8466;52.286;21.124;2023-03-01T13:50:46;28.03;;;25.40;;
16699;SDS011;8466;52.286;21.124;2023-03-01T13:53:19;28.37;;;25.57;;
16699;SDS011;8466;52.286;21.124;2023-03-01T13:55:50;26.73;;;23.97;;
16699;SDS011;8466;52.286;21.124;2023-03-01T13:58:27;26.57;;;23.93;;
16699;SDS011;8466;52.286;21.124;2023-03-01T14:00:58;25.60;;;22.97;;
16699;SDS011;8466;52.286;21.124;2023-03-01T14:03:28;25.63;;;23.07;;
16699;SDS011;8466;52.286;21.124;2023-03-01T14:06:00;26.03;;;23.37;;
16699;SDS011;8466;52.286;21.124;2023-03-01T14:08:45;25.60;;;22.90;;
16699;SDS011;8466;52.286;21.124;2023-03-01T14:14:32;28.60;;;25.23;;
16699;SDS011;8466;52.286;21.124;2023-03-01T14:17:24;27.87;;;24.83;;
16699;SDS011;8466;52.286;21.124;2023-03-01T14:20:18;30.17;;;27.00;;
16699;SDS011;8466;52.286;21.124;2023-03-01T14:22:49;29.83;;;26.13;;
16699;SDS011;8466;52.286;21.124;2023-03-01T14:25:21;25.23;;;22.57;;
16699;SDS011;8466;52.286;21.124;2023-03-01T14:27:59;28.67;;;25.67;;
16699;SDS011;8466;52.286;21.124;2023-03-01T14:30:34;27.15;;;24.45;;
16699;SDS011;8466;52.286;21.124;2023-03-01T14:33:05;28.30;;;25.30;;
16699;SDS011;8466;52.286;21.124;2023-03-01T14:35:52;26.33;;;23.37;;
16699;SDS011;8466;52.286;21.124;2023-03-01T14:38:23;28.63;;;24.70;;
16699;SDS011;8466;52.286;21.124;2023-03-01T14:40:58;27.40;;;24.40;;
16699;SDS011;8466;52.286;21.124;2023-03-01T14:43:32;30.17;;;26.93;;
16699;SDS011;8466;52.286;21.124;2023-03-01T14:46:03;28.73;;;25.63;;
16699;SDS011;8466;52.286;21.124;2023-03-01T14:48:31;29.10;;;25.93;;
16699;SDS011;8466;52.286;21.124;2023-03-01T14:51:00;28.60;;;25.70;;
16699;SDS011;8466;52.286;21.124;2023-03-01T14:53:32;26.43;;;23.70;;
16699;SDS011;8466;52.286;21.124;2023-03-01T14:56:15;26.57;;;23.80;;
16699;SDS011;8466;52.286;21.124;2023-03-01T14:58:46;33.73;;;27.13;;
16699;SDS011;8466;52.286;21.124;2023-03-01T15:01:20;31.90;;;28.70;;
16699;SDS011;8466;52.286;21.124;2023-03-01T15:03:49;29.03;;;26.00;;
16699;SDS011;8466;52.286;21.124;2023-03-01T15:06:19;31.73;;;28.43;;
16699;SDS011;8466;52.286;21.124;2023-03-01T15:08:50;29.53;;;26.40;;
16699;SDS011;8466;52.286;21.124;2023-03-01T15:11:22;29.50;;;26.47;;
16699;SDS011;8466;52.286;21.124;2023-03-01T15:13:51;26.47;;;23.80;;